createdAt,value
2022-09-20T00:00:09.901Z,60.73
2022-09-20T00:01:14.373Z,60.57
2022-09-20T00:02:18.632Z,60.6
2022-09-20T00:03:22.825Z,60.66
2022-09-20T00:04:27.065Z,60.8
2022-09-20T00:05:31.373Z,60.82
2022-09-20T00:06:35.766Z,60.7
2022-09-20T00:07:39.993Z,60.7
2022-09-20T00:08:44.218Z,60.74
2022-09-20T00:09:48.457Z,60.9
2022-09-20T00:10:52.773Z,60.64
2022-09-20T00:11:57.029Z,60.79
2022-09-20T00:13:01.265Z,60.86
2022-09-20T00:14:05.492Z,60.77
2022-09-20T00:15:12.207Z,60.45
2022-09-20T00:16:16.806Z,60.81
2022-09-20T00:17:21.357Z,60.74
2022-09-20T00:18:25.569Z,60.82
2022-09-20T00:19:29.798Z,60.91
2022-09-20T00:20:34.034Z,60.85
2022-09-20T00:21:38.295Z,60.75
2022-09-20T00:22:42.531Z,60.55
2022-09-20T00:23:46.766Z,60.06
2022-09-20T00:24:51.217Z,60.61
2022-09-20T00:25:55.441Z,60.56
2022-09-20T00:26:59.721Z,60.39
2022-09-20T00:28:03.936Z,60.46
2022-09-20T00:29:08.176Z,59.9
2022-09-20T00:30:12.558Z,60.55
2022-09-20T00:31:17.181Z,59.98
2022-09-20T00:32:21.461Z,60.53
2022-09-20T00:33:25.687Z,60.46
2022-09-20T00:34:29.932Z,60.51
2022-09-20T00:35:34.138Z,60.65
2022-09-20T00:36:38.360Z,60.58
2022-09-20T00:37:42.608Z,60.6
2022-09-20T00:38:46.890Z,60.5
2022-09-20T00:39:51.190Z,60.66
2022-09-20T00:40:55.427Z,60.67
2022-09-20T00:41:59.676Z,60.54
2022-09-20T00:43:03.908Z,60.38
2022-09-20T00:44:08.151Z,60.71
2022-09-20T00:45:12.416Z,60.69
2022-09-20T00:46:16.798Z,60.28
2022-09-20T00:47:21.134Z,60.5
2022-09-20T00:48:25.373Z,60.78
2022-09-20T00:49:29.592Z,60.76
2022-09-20T00:50:33.880Z,60.6
2022-09-20T00:51:38.296Z,60.65
2022-09-20T00:52:42.506Z,60.49
2022-09-20T00:53:46.774Z,60.11
2022-09-20T00:54:51.018Z,60.5
2022-09-20T00:55:55.283Z,60.58
2022-09-20T00:56:59.520Z,60.67
2022-09-20T00:58:03.738Z,60.1
2022-09-20T00:59:08.006Z,60.09
2022-09-20T01:00:12.230Z,60.66
2022-09-20T01:01:16.811Z,60.51
2022-09-20T01:02:21.412Z,60.56
2022-09-20T01:03:25.748Z,60.62
2022-09-20T01:04:29.998Z,60.54
2022-09-20T01:05:34.295Z,60.02
2022-09-20T01:06:38.502Z,60.18
2022-09-20T01:07:42.713Z,60.41
2022-09-20T01:08:46.971Z,60.35
2022-09-20T01:09:51.208Z,59.94
2022-09-20T01:10:55.440Z,60.09
2022-09-20T01:11:59.643Z,59.97
2022-09-20T01:13:03.848Z,60.04
2022-09-20T01:14:08.100Z,60.45
2022-09-20T01:15:12.349Z,60.13
2022-09-20T01:16:16.781Z,60.27
2022-09-20T01:17:21.018Z,59.83
2022-09-20T01:18:25.380Z,60.02
2022-09-20T01:19:29.587Z,60.49
2022-09-20T01:20:33.838Z,60.59
2022-09-20T01:21:38.069Z,60.43
2022-09-20T01:22:42.298Z,59.97
2022-09-20T01:23:46.555Z,60.47
2022-09-20T01:24:50.784Z,59.96
2022-09-20T01:25:54.982Z,60.39
2022-09-20T01:26:59.226Z,60.26
2022-09-20T01:28:03.480Z,60.34
2022-09-20T01:29:07.708Z,60.28
2022-09-20T01:30:11.938Z,60.59
2022-09-20T01:31:16.373Z,60.53
2022-09-20T01:32:20.645Z,60.4
2022-09-20T01:33:24.884Z,59.9
2022-09-20T01:34:32.126Z,60.33
2022-09-20T01:35:36.377Z,60.38
2022-09-20T01:36:40.618Z,60.46
2022-09-20T01:37:44.857Z,60.54
2022-09-20T01:38:49.070Z,60.58
2022-09-20T01:39:53.299Z,60.36
2022-09-20T01:40:57.540Z,60.49
2022-09-20T01:42:01.758Z,60.16
2022-09-20T01:43:06.008Z,60.48
2022-09-20T01:44:11.281Z,60.4
2022-09-20T01:45:15.513Z,60.08
2022-09-20T01:46:20.003Z,60.39
2022-09-20T01:47:24.308Z,60.22
2022-09-20T01:48:28.546Z,60.47
2022-09-20T01:49:32.752Z,60.4
2022-09-20T01:50:36.965Z,60.44
2022-09-20T01:51:41.182Z,60.42
2022-09-20T01:52:45.443Z,60.09
2022-09-20T01:53:49.704Z,60.45
2022-09-20T01:54:53.965Z,60.21
2022-09-20T01:55:58.189Z,60.27
2022-09-20T01:57:02.403Z,60.38
2022-09-20T01:58:06.636Z,60.22
2022-09-20T01:59:27.863Z,60.04
2022-09-20T02:00:32.337Z,59.92
2022-09-20T02:01:37.014Z,60.25
2022-09-20T02:02:41.534Z,60.37
2022-09-20T02:03:45.810Z,60.21
2022-09-20T02:04:50.289Z,60.39
2022-09-20T02:05:54.560Z,60.17
2022-09-20T02:06:58.777Z,59.97
2022-09-20T02:08:03.056Z,60.27
2022-09-20T02:09:08.295Z,60.34
2022-09-20T02:10:12.512Z,60.38
2022-09-20T02:11:16.760Z,59.84
2022-09-20T02:12:21.000Z,60.4
2022-09-20T02:13:25.231Z,60.32
2022-09-20T02:14:29.474Z,60.28
2022-09-20T02:15:33.676Z,60.24
2022-09-20T02:16:38.182Z,60.4
2022-09-20T02:17:43.464Z,60.43
2022-09-20T02:18:47.713Z,60.42
2022-09-20T02:19:51.993Z,60.51
2022-09-20T02:20:56.216Z,60.44
2022-09-20T02:22:00.428Z,60.47
2022-09-20T02:23:04.854Z,60.54
2022-09-20T02:24:09.223Z,59.94
2022-09-20T02:25:13.442Z,60.37
2022-09-20T02:26:17.680Z,60.49
2022-09-20T02:27:21.959Z,60.58
2022-09-20T02:28:26.209Z,60.47
2022-09-20T02:29:30.426Z,60.43
2022-09-20T02:30:34.681Z,60.41
2022-09-20T02:31:39.138Z,60.4
2022-09-20T02:32:43.396Z,60.54
2022-09-20T02:33:47.622Z,60.4
2022-09-20T02:34:51.862Z,60.59
2022-09-20T02:35:56.094Z,60.53
2022-09-20T02:37:00.317Z,60.29
2022-09-20T02:38:04.543Z,59.7
2022-09-20T02:39:08.796Z,60.13
2022-09-20T02:40:13.251Z,60.42
2022-09-20T02:41:17.516Z,60.35
2022-09-20T02:42:21.765Z,60.27
2022-09-20T02:43:26.023Z,60.52
2022-09-20T02:44:30.267Z,60.53
2022-09-20T02:45:34.749Z,60.54
2022-09-20T02:46:39.010Z,60.39
2022-09-20T02:47:43.259Z,60.53
2022-09-20T02:48:47.511Z,60.41
2022-09-20T02:49:51.827Z,60.57
2022-09-20T02:50:56.082Z,60.33
2022-09-20T02:52:00.381Z,60.41
2022-09-20T02:53:04.628Z,60.23
2022-09-20T02:54:08.876Z,60.54
2022-09-20T02:55:13.093Z,60.55
2022-09-20T02:56:17.350Z,60.56
2022-09-20T02:57:21.568Z,60.51
2022-09-20T02:58:25.802Z,60.7
2022-09-20T02:59:30.033Z,60.62
2022-09-20T03:00:34.248Z,60.54
2022-09-20T03:01:38.715Z,60.64
2022-09-20T03:02:43.334Z,60.59
2022-09-20T03:03:47.583Z,60.77
2022-09-20T03:04:51.804Z,60.45
2022-09-20T03:05:56.192Z,60.47
2022-09-20T03:07:00.389Z,60.55
2022-09-20T03:08:05.250Z,60.69
2022-09-20T03:09:09.563Z,60.52
2022-09-20T03:10:13.833Z,60.68
2022-09-20T03:11:18.056Z,60.6
2022-09-20T03:12:22.321Z,60.67
2022-09-20T03:13:26.576Z,60.72
2022-09-20T03:14:30.780Z,60.69
2022-09-20T03:15:35.050Z,60.63
2022-09-20T03:16:39.902Z,60.51
2022-09-20T03:17:44.223Z,60.71
2022-09-20T03:18:48.479Z,60.69
2022-09-20T03:19:52.723Z,60.55
2022-09-20T03:20:56.926Z,60.54
2022-09-20T03:22:01.171Z,60.58
2022-09-20T03:23:05.416Z,60.43
2022-09-20T03:24:09.681Z,60.44
2022-09-20T03:25:13.889Z,60.59
2022-09-20T03:26:18.142Z,60.73
2022-09-20T03:27:22.374Z,60.65
2022-09-20T03:28:26.642Z,60.47
2022-09-20T03:29:30.895Z,60.56
2022-09-20T03:30:35.143Z,60.41
2022-09-20T03:31:39.647Z,60.73
2022-09-20T03:32:43.913Z,60.76
2022-09-20T03:33:51.203Z,60.47
2022-09-20T03:34:55.408Z,60.56
2022-09-20T03:35:59.636Z,60.7
2022-09-20T03:37:03.879Z,60.69
2022-09-20T03:38:08.114Z,60.65
2022-09-20T03:39:12.382Z,60.72
2022-09-20T03:40:16.909Z,60.57
2022-09-20T03:41:21.166Z,60.63
2022-09-20T03:42:25.362Z,60.62
2022-09-20T03:43:29.607Z,60.54
2022-09-20T03:44:33.831Z,60.67
2022-09-20T03:45:38.293Z,60.84
2022-09-20T03:46:42.554Z,60.57
2022-09-20T03:47:46.798Z,60.65
2022-09-20T03:48:51.004Z,60.63
2022-09-20T03:49:55.192Z,60.81
2022-09-20T03:50:59.426Z,60.67
2022-09-20T03:52:03.617Z,60.63
2022-09-20T03:53:10.143Z,60.71
2022-09-20T03:54:14.372Z,60.82
2022-09-20T03:55:18.585Z,60.42
2022-09-20T03:56:22.843Z,60.8
2022-09-20T03:57:27.082Z,60.74
2022-09-20T03:58:31.317Z,60.81
2022-09-20T03:59:35.592Z,60.77
2022-09-20T04:00:42.711Z,60.63
2022-09-20T04:01:46.981Z,60.97
2022-09-20T04:02:51.169Z,60.9
2022-09-20T04:03:55.386Z,60.8
2022-09-20T04:04:59.620Z,60.95
2022-09-20T04:06:03.863Z,60.83
2022-09-20T04:07:08.206Z,60.77
2022-09-20T04:08:12.410Z,60.56
2022-09-20T04:09:16.653Z,60.37
2022-09-20T04:10:20.877Z,60.02
2022-09-20T04:11:25.142Z,59.25
2022-09-20T04:12:30.559Z,58.83
2022-09-20T04:13:34.931Z,58.69
2022-09-20T04:14:39.180Z,59.17
2022-09-20T04:15:43.443Z,58.38
2022-09-20T04:16:48.009Z,58.13
2022-09-20T04:17:52.269Z,57.38
2022-09-20T04:18:56.509Z,57.84
2022-09-20T04:20:00.718Z,57.91
2022-09-20T04:21:04.998Z,57.59
2022-09-20T04:22:09.250Z,57.23
2022-09-20T04:23:13.470Z,57.6
2022-09-20T04:24:17.686Z,57.57
2022-09-20T04:25:21.940Z,56.83
2022-09-20T04:26:26.167Z,56.93
2022-09-20T04:27:30.433Z,57.01
2022-09-20T04:28:34.660Z,56.6
2022-09-20T04:29:38.943Z,56.41
2022-09-20T04:30:43.184Z,56.87
2022-09-20T04:31:54.042Z,56.57
2022-09-20T04:32:58.526Z,56.22
2022-09-20T04:34:02.767Z,56.53
2022-09-20T04:35:07.028Z,56.35
2022-09-20T04:36:11.531Z,56.29
2022-09-20T04:37:15.769Z,56.02
2022-09-20T04:38:19.991Z,56.01
2022-09-20T04:39:24.206Z,56.09
2022-09-20T04:40:28.707Z,56.14
2022-09-20T04:41:34.530Z,56.1
2022-09-20T04:42:38.769Z,55.82
2022-09-20T04:43:42.983Z,56.01
2022-09-20T04:44:47.218Z,56.05
2022-09-20T04:45:51.724Z,55.83
2022-09-20T04:46:58.264Z,55.89
2022-09-20T04:48:02.502Z,55.8
2022-09-20T04:49:06.709Z,55.83
2022-09-20T04:50:10.960Z,55.77
2022-09-20T04:51:15.227Z,55.76
2022-09-20T04:52:19.435Z,55.71
2022-09-20T04:53:23.714Z,55.69
2022-09-20T04:54:27.938Z,55.68
2022-09-20T04:55:32.137Z,55.56
2022-09-20T04:56:36.472Z,55.64
2022-09-20T04:57:40.708Z,55.62
2022-09-20T04:58:44.998Z,55.57
2022-09-20T04:59:49.194Z,55.57
2022-09-20T05:00:53.599Z,55.52
2022-09-20T05:01:58.155Z,55.48
2022-09-20T05:03:02.400Z,55.45
2022-09-20T05:04:06.629Z,55.38
2022-09-20T05:05:10.852Z,55.42
2022-09-20T05:06:15.085Z,55.43
2022-09-20T05:07:19.385Z,55.34
2022-09-20T05:08:23.653Z,55.34
2022-09-20T05:09:27.884Z,55.28
2022-09-20T05:10:32.129Z,55.34
2022-09-20T05:11:36.360Z,55.21
2022-09-20T05:12:40.589Z,55.26
2022-09-20T05:13:44.877Z,55.34
2022-09-20T05:14:49.084Z,55.29
2022-09-20T05:15:53.311Z,55.28
2022-09-20T05:16:57.851Z,55.13
2022-09-20T05:18:02.097Z,55.22
2022-09-20T05:19:06.338Z,55.2
2022-09-20T05:20:10.566Z,55.27
2022-09-20T05:21:14.815Z,55.19
2022-09-20T05:22:19.016Z,55.11
2022-09-20T05:23:23.270Z,55.24
2022-09-20T05:24:27.474Z,55.09
2022-09-20T05:25:34.240Z,55.01
2022-09-20T05:26:38.425Z,55.06
2022-09-20T05:27:42.647Z,54.94
2022-09-20T05:28:46.856Z,55.08
2022-09-20T05:29:51.129Z,55.16
2022-09-20T05:30:55.603Z,54.89
2022-09-20T05:32:00.241Z,54.89
2022-09-20T05:33:04.565Z,55.07
2022-09-20T05:34:08.774Z,54.96
2022-09-20T05:35:12.967Z,55.02
2022-09-20T05:36:17.270Z,54.76
2022-09-20T05:37:21.491Z,54.92
2022-09-20T05:38:25.976Z,54.96
2022-09-20T05:39:30.223Z,54.91
2022-09-20T05:40:34.767Z,55
2022-09-20T05:41:39.012Z,54.92
2022-09-20T05:42:43.235Z,54.91
2022-09-20T05:43:47.475Z,54.93
2022-09-20T05:44:51.756Z,54.92
2022-09-20T05:45:56.116Z,54.58
2022-09-20T05:47:00.377Z,54.89
2022-09-20T05:48:04.723Z,54.82
2022-09-20T05:49:08.973Z,54.85
2022-09-20T05:50:13.224Z,54.8
2022-09-20T05:51:17.443Z,54.75
2022-09-20T05:52:21.669Z,54.74
2022-09-20T05:53:25.839Z,54.8
2022-09-20T05:54:30.113Z,54.85
2022-09-20T05:55:34.352Z,54.84
2022-09-20T05:56:38.774Z,54.78
2022-09-20T05:57:42.993Z,54.55
2022-09-20T05:58:47.214Z,54.7
2022-09-20T05:59:51.431Z,54.82
2022-09-20T06:00:55.853Z,54.69
2022-09-20T06:02:00.269Z,54.75
2022-09-20T06:03:04.563Z,54.66
2022-09-20T06:04:09.033Z,54.76
2022-09-20T06:05:13.337Z,54.62
2022-09-20T06:06:17.582Z,54.77
2022-09-20T06:07:21.817Z,54.51
2022-09-20T06:08:26.110Z,54.68
2022-09-20T06:09:30.329Z,54.6
2022-09-20T06:10:34.595Z,54.45
2022-09-20T06:11:38.811Z,54.63
2022-09-20T06:12:43.120Z,54.57
2022-09-20T06:13:47.373Z,54.37
2022-09-20T06:14:51.651Z,54.32
2022-09-20T06:15:55.880Z,54.38
2022-09-20T06:17:00.112Z,54.25
2022-09-20T06:18:04.331Z,54.55
2022-09-20T06:19:08.555Z,54.35
2022-09-20T06:20:12.844Z,54.32
2022-09-20T06:21:17.090Z,54.27
2022-09-20T06:22:21.313Z,54.31
2022-09-20T06:23:25.526Z,54.21
2022-09-20T06:24:29.771Z,54.26
2022-09-20T06:25:33.994Z,54.36
2022-09-20T06:26:38.222Z,54.35
2022-09-20T06:27:42.458Z,54.44
2022-09-20T06:28:47.712Z,54.35
2022-09-20T06:29:51.930Z,54.18
2022-09-20T06:30:56.384Z,54.26
2022-09-20T06:32:00.643Z,54.28
2022-09-20T06:33:04.907Z,54.29
2022-09-20T06:34:09.122Z,54.34
2022-09-20T06:35:13.353Z,54.28
2022-09-20T06:36:17.619Z,54.35
2022-09-20T06:37:21.857Z,54.34
2022-09-20T06:38:26.100Z,54.26
2022-09-20T06:39:30.303Z,54.29
2022-09-20T06:40:34.738Z,54.29
2022-09-20T06:41:39.006Z,54.19
2022-09-20T06:42:43.229Z,54.26
2022-09-20T06:43:47.452Z,54.19
2022-09-20T06:44:52.706Z,54.12
2022-09-20T06:45:57.125Z,54.21
2022-09-20T06:47:01.378Z,54.15
2022-09-20T06:48:05.632Z,53.88
2022-09-20T06:49:10.089Z,53.97
2022-09-20T06:50:14.340Z,54.08
2022-09-20T06:51:20.913Z,54.18
2022-09-20T06:52:25.141Z,53.91
2022-09-20T06:53:29.364Z,53.96
2022-09-20T06:54:33.597Z,54.15
2022-09-20T06:55:37.807Z,54.12
2022-09-20T06:56:42.051Z,54.16
2022-09-20T06:57:46.311Z,54.16
2022-09-20T06:58:50.534Z,54.08
2022-09-20T06:59:54.758Z,54.03
2022-09-20T07:00:59.227Z,53.84
2022-09-20T07:02:03.645Z,54.13
2022-09-20T07:03:07.900Z,54.17
2022-09-20T07:04:12.263Z,54.07
2022-09-20T07:05:16.512Z,54.07
2022-09-20T07:06:20.762Z,54.03
2022-09-20T07:07:25.065Z,53.91
2022-09-20T07:08:29.290Z,54
2022-09-20T07:09:33.521Z,54.07
2022-09-20T07:10:37.755Z,53.86
2022-09-20T07:11:42.000Z,54.04
2022-09-20T07:12:46.251Z,53.75
2022-09-20T07:13:50.455Z,54.04
2022-09-20T07:14:54.731Z,54
2022-09-20T07:16:01.216Z,53.85
2022-09-20T07:17:05.730Z,53.94
2022-09-20T07:18:09.940Z,54.07
2022-09-20T07:19:14.321Z,53.88
2022-09-20T07:20:23.271Z,54.07
2022-09-20T07:21:27.541Z,54.01
2022-09-20T07:22:31.799Z,54.07
2022-09-20T07:23:36.040Z,54.11
2022-09-20T07:24:40.259Z,53.94
2022-09-20T07:25:44.490Z,53.85
2022-09-20T07:26:48.748Z,53.99
2022-09-20T07:27:52.952Z,53.83
2022-09-20T07:28:57.164Z,53.93
2022-09-20T07:30:01.402Z,53.84
2022-09-20T07:31:05.628Z,53.83
2022-09-20T07:32:09.924Z,53.74
2022-09-20T07:33:14.142Z,53.8
2022-09-20T07:34:18.582Z,53.77
2022-09-20T07:35:22.810Z,53.7
2022-09-20T07:36:27.044Z,53.77
2022-09-20T07:37:38.106Z,53.85
2022-09-20T07:38:42.312Z,53.72
2022-09-20T07:39:46.521Z,53.86
2022-09-20T07:40:50.782Z,53.87
2022-09-20T07:41:55.012Z,53.75
2022-09-20T07:42:59.316Z,53.75
2022-09-20T07:44:03.564Z,53.62
2022-09-20T07:45:07.869Z,53.48
2022-09-20T07:46:12.246Z,53.81
2022-09-20T07:47:16.491Z,53.74
2022-09-20T07:48:20.786Z,53.7
2022-09-20T07:49:25.051Z,53.79
2022-09-20T07:50:29.312Z,53.78
2022-09-20T07:51:33.573Z,53.73
2022-09-20T07:52:37.843Z,53.66
2022-09-20T07:53:42.075Z,53.42
2022-09-20T07:54:46.286Z,53.38
2022-09-20T07:55:50.540Z,53.4
2022-09-20T07:56:54.782Z,53.37
2022-09-20T07:57:59.035Z,53.48
2022-09-20T07:59:03.263Z,53.5
2022-09-20T08:00:07.523Z,53.63
2022-09-20T08:01:12.128Z,53.46
2022-09-20T08:02:16.669Z,53.61
2022-09-20T08:03:21.008Z,53.6
2022-09-20T08:04:25.253Z,53.53
2022-09-20T08:05:29.463Z,53.46
2022-09-20T08:06:33.765Z,53.41
2022-09-20T08:07:38.014Z,53.4
2022-09-20T08:08:42.280Z,53.42
2022-09-20T08:09:46.533Z,53.6
2022-09-20T08:10:50.790Z,53.5
2022-09-20T08:11:55.173Z,53.44
2022-09-20T08:14:07.978Z,53.54
2022-09-20T08:15:14.480Z,53.52
2022-09-20T08:16:19.101Z,53.61
2022-09-20T08:17:23.364Z,53.62
2022-09-20T08:18:27.665Z,53.44
2022-09-20T08:19:31.931Z,53.45
2022-09-20T08:20:36.189Z,53.54
2022-09-20T08:21:40.459Z,53.4
2022-09-20T08:22:47.507Z,53.56
2022-09-20T08:23:57.177Z,53.53
2022-09-20T08:25:01.404Z,53.59
2022-09-20T08:26:07.698Z,53.53
2022-09-20T08:27:12.055Z,53.5
2022-09-20T08:28:18.558Z,53.38
2022-09-20T08:29:22.777Z,53.41
2022-09-20T08:30:29.855Z,53.45
2022-09-20T08:31:34.279Z,53.41
2022-09-20T08:32:38.704Z,53.49
2022-09-20T08:33:42.949Z,53.38
2022-09-20T08:34:51.413Z,53.47
2022-09-20T08:35:59.802Z,53.31
2022-09-20T08:37:04.113Z,53.42
2022-09-20T08:40:42.977Z,53.34
2022-09-20T08:41:47.231Z,53.23
2022-09-20T08:42:51.471Z,53.25
2022-09-20T08:43:55.846Z,53.38
2022-09-20T08:45:01.659Z,53.29
2022-09-20T08:46:09.158Z,53.32
2022-09-20T08:47:13.416Z,53.18
2022-09-20T08:48:17.777Z,53.26
2022-09-20T08:49:22.024Z,53.27
2022-09-20T08:50:26.246Z,53.22
2022-09-20T08:51:30.571Z,53.03
2022-09-20T08:52:38.717Z,53.2
2022-09-20T08:53:43.059Z,53.29
2022-09-20T08:54:52.984Z,53.13
2022-09-20T08:55:58.219Z,53.19
2022-09-20T08:57:05.617Z,53.3
2022-09-20T08:58:11.061Z,53.25
2022-09-20T08:59:15.351Z,53.19
2022-09-20T09:00:19.703Z,53.27
2022-09-20T09:01:24.089Z,53.24
2022-09-20T09:02:28.430Z,53.25
2022-09-20T09:03:32.681Z,53.29
2022-09-20T09:04:36.901Z,53.36
2022-09-20T09:05:41.144Z,53.37
2022-09-20T09:06:45.410Z,53.29
2022-09-20T09:07:49.648Z,53.29
2022-09-20T09:08:53.899Z,53.25
2022-09-20T09:09:58.159Z,53.32
2022-09-20T09:11:02.371Z,53.25
2022-09-20T09:12:06.592Z,53.21
2022-09-20T09:13:10.814Z,53.3
2022-09-20T09:14:15.025Z,53.31
2022-09-20T09:15:19.805Z,53.39
2022-09-20T09:16:36.413Z,53.37
2022-09-20T09:17:40.759Z,53.4
2022-09-20T09:18:44.978Z,53.39
2022-09-20T09:19:49.167Z,53.43
2022-09-20T09:20:53.429Z,53.41
2022-09-20T09:21:57.656Z,53.39
2022-09-20T09:23:01.898Z,53.42
2022-09-20T09:24:06.145Z,53.41
2022-09-20T09:25:10.390Z,53.4
2022-09-20T09:26:14.628Z,53.42
2022-09-20T09:27:18.866Z,53.47
2022-09-20T09:28:23.105Z,53.37
2022-09-20T09:29:29.748Z,53.37
2022-09-20T09:30:35.893Z,53.46
2022-09-20T09:31:40.548Z,53.41
2022-09-20T09:32:44.830Z,53.38
2022-09-20T09:33:49.070Z,53.38
2022-09-20T09:34:53.312Z,53.45
2022-09-20T09:35:57.523Z,53.52
2022-09-20T09:37:01.748Z,53.52
2022-09-20T09:38:05.990Z,53.55
2022-09-20T09:39:10.244Z,53.56
2022-09-20T09:40:14.661Z,53.53
2022-09-20T09:41:18.926Z,53.53
2022-09-20T09:42:23.157Z,53.54
2022-09-20T09:43:27.420Z,53.58
2022-09-20T09:44:31.656Z,53.64
2022-09-20T09:45:36.090Z,53.57
2022-09-20T09:46:40.393Z,53.53
2022-09-20T09:47:44.636Z,53.58
2022-09-20T09:48:48.872Z,53.57
2022-09-20T09:50:00.266Z,53.55
2022-09-20T09:51:05.117Z,53.56
2022-09-20T09:52:09.348Z,53.55
2022-09-20T09:53:13.572Z,53.58
2022-09-20T09:54:17.784Z,53.62
2022-09-20T09:55:22.048Z,53.62
2022-09-20T09:56:26.343Z,53.55
2022-09-20T09:57:30.550Z,53.58
2022-09-20T09:58:34.797Z,53.57
2022-09-20T09:59:39.065Z,53.62
2022-09-20T10:00:43.288Z,53.62
2022-09-20T10:01:47.730Z,53.65
2022-09-20T10:02:52.033Z,53.61
2022-09-20T10:03:56.300Z,53.65
2022-09-20T10:05:00.614Z,53.63
2022-09-20T10:06:04.828Z,53.67
2022-09-20T10:07:09.067Z,53.67
2022-09-20T10:08:13.290Z,53.58
2022-09-20T10:09:17.526Z,53.64
2022-09-20T10:10:21.762Z,53.54
2022-09-20T10:11:25.994Z,53.52
2022-09-20T10:12:30.225Z,53.4
2022-09-20T10:13:41.605Z,53.46
2022-09-20T10:14:45.920Z,53.49
2022-09-20T10:15:50.152Z,53.48
2022-09-20T10:16:54.627Z,53.46
2022-09-20T10:17:58.887Z,53.44
2022-09-20T10:19:03.168Z,53.43
2022-09-20T10:20:07.399Z,53.5
2022-09-20T10:21:11.648Z,53.44
2022-09-20T10:22:15.938Z,53.36
2022-09-20T10:24:05.042Z,53.27
2022-09-20T10:25:09.350Z,53.39
2022-09-20T10:26:13.584Z,53.22
2022-09-20T10:27:17.819Z,53.16
2022-09-20T10:28:22.051Z,53.2
2022-09-20T10:29:26.322Z,53.08
2022-09-20T10:30:30.792Z,53.09
2022-09-20T10:31:35.385Z,53.07
2022-09-20T10:32:40.651Z,52.99
2022-09-20T10:33:45.052Z,52.93
2022-09-20T10:34:49.335Z,52.93
2022-09-20T10:35:53.661Z,52.93
2022-09-20T10:36:57.892Z,52.88
2022-09-20T10:38:02.144Z,52.87
2022-09-20T10:39:06.360Z,52.8
2022-09-20T10:40:10.846Z,52.81
2022-09-20T10:41:15.148Z,52.74
2022-09-20T10:42:19.546Z,52.75
2022-09-20T10:43:26.321Z,52.76
2022-09-20T10:44:30.574Z,52.72
2022-09-20T10:46:33.113Z,52.81
2022-09-20T10:47:37.636Z,52.79
2022-09-20T10:48:41.865Z,52.82
2022-09-20T10:49:52.104Z,52.8
2022-09-20T10:50:56.359Z,52.86
2022-09-20T10:52:00.662Z,52.93
2022-09-20T10:53:04.920Z,52.92
2022-09-20T10:54:09.156Z,52.95
2022-09-20T10:55:13.429Z,52.97
2022-09-20T10:56:17.729Z,53.05
2022-09-20T10:57:21.942Z,53.05
2022-09-20T10:58:26.204Z,53.01
2022-09-20T10:59:30.461Z,53.02
2022-09-20T11:00:34.695Z,53.03
2022-09-20T11:01:39.163Z,53.01
2022-09-20T11:02:43.450Z,53
2022-09-20T11:03:47.810Z,53
2022-09-20T11:04:52.049Z,53.01
2022-09-20T11:05:59.435Z,53.03
2022-09-20T11:07:03.654Z,53.03
2022-09-20T11:08:08.018Z,53.09
2022-09-20T11:09:15.959Z,53.11
2022-09-20T11:10:20.160Z,53.12
2022-09-20T11:11:24.397Z,53.16
2022-09-20T11:12:28.718Z,53.18
2022-09-20T11:13:32.961Z,53.18
2022-09-20T11:14:37.224Z,53.18
2022-09-20T11:15:41.444Z,53.25
2022-09-20T11:16:45.962Z,53.24
2022-09-20T11:17:50.410Z,53.27
2022-09-20T11:18:54.822Z,53.24
2022-09-20T11:20:00.402Z,53.21
2022-09-20T11:21:06.403Z,53.18
2022-09-20T11:22:10.649Z,53.13
2022-09-20T11:23:14.872Z,53.09
2022-09-20T11:24:19.101Z,53.04
2022-09-20T11:25:30.693Z,53.12
2022-09-20T11:26:34.918Z,53
2022-09-20T11:27:39.167Z,52.95
2022-09-20T11:28:43.434Z,52.91
2022-09-20T11:29:47.679Z,52.88
2022-09-20T11:30:51.915Z,52.78
2022-09-20T11:31:56.307Z,52.72
2022-09-20T11:33:00.586Z,52.66
2022-09-20T11:34:04.855Z,52.59
2022-09-20T11:35:09.064Z,52.58
2022-09-20T11:36:13.323Z,52.53
2022-09-20T11:37:17.546Z,52.53
2022-09-20T11:38:21.814Z,52.51
2022-09-20T11:39:26.054Z,52.47
2022-09-20T11:40:30.594Z,52.46
2022-09-20T11:41:34.957Z,52.43
2022-09-20T11:42:39.194Z,52.51
2022-09-20T11:43:43.429Z,52.48
2022-09-20T11:44:47.689Z,52.56
2022-09-20T11:45:52.128Z,52.56
2022-09-20T11:46:56.436Z,52.55
2022-09-20T11:48:00.685Z,52.53
2022-09-20T11:49:04.921Z,52.54
2022-09-20T11:50:10.153Z,52.57
2022-09-20T11:51:14.401Z,52.64
2022-09-20T11:52:18.635Z,52.75
2022-09-20T11:53:22.877Z,52.58
2022-09-20T11:54:27.092Z,52.59
2022-09-20T11:55:31.344Z,52.54
2022-09-20T11:56:35.586Z,52.54
2022-09-20T11:57:39.776Z,52.6
2022-09-20T11:58:43.998Z,52.61
2022-09-20T11:59:48.201Z,52.56
2022-09-20T12:00:52.553Z,52.47
2022-09-20T12:01:57.103Z,52.52
2022-09-20T12:03:01.805Z,52.47
2022-09-20T12:04:35.268Z,52.46
2022-09-20T12:05:39.764Z,52.42
2022-09-20T12:06:44.036Z,52.41
2022-09-20T12:07:48.274Z,52.43
2022-09-20T12:08:52.528Z,52.38
2022-09-20T12:09:56.769Z,52.42
2022-09-20T12:11:01.059Z,52.37
2022-09-20T12:12:05.258Z,52.38
2022-09-20T12:13:09.473Z,52.38
2022-09-20T12:14:13.830Z,52.32
2022-09-20T12:15:18.039Z,52.3
2022-09-20T12:16:22.486Z,52.34
2022-09-20T12:17:26.787Z,52.35
2022-09-20T12:18:31.015Z,52.3
2022-09-20T12:19:35.247Z,52.23
2022-09-20T12:20:39.463Z,52.2
2022-09-20T12:21:49.257Z,52.1
2022-09-20T12:22:53.626Z,52.01
2022-09-20T12:23:57.874Z,52.03
2022-09-20T12:25:02.110Z,52
2022-09-20T12:26:06.396Z,51.99
2022-09-20T12:27:10.627Z,51.99
2022-09-20T12:28:14.846Z,51.97
2022-09-20T12:29:19.115Z,51.96
2022-09-20T12:30:23.375Z,51.97
2022-09-20T12:31:27.733Z,52.01
2022-09-20T12:32:31.966Z,51.99
2022-09-20T12:33:36.191Z,52.02
2022-09-20T12:34:40.437Z,51.97
2022-09-20T12:35:44.748Z,51.98
2022-09-20T12:36:48.969Z,51.99
2022-09-20T12:37:53.194Z,51.99
2022-09-20T12:38:57.559Z,52
2022-09-20T12:40:01.947Z,52.08
2022-09-20T12:41:06.216Z,52.09
2022-09-20T12:42:10.484Z,52.11
2022-09-20T12:43:14.736Z,52.11
2022-09-20T12:44:18.997Z,52.12
2022-09-20T12:45:23.239Z,52.1
2022-09-20T12:46:27.653Z,52.22
2022-09-20T12:47:31.951Z,52.3
2022-09-20T12:48:36.195Z,52.38
2022-09-20T12:49:40.421Z,52.38
2022-09-20T12:50:44.689Z,52.42
2022-09-20T12:51:48.961Z,52.47
2022-09-20T12:52:53.224Z,52.54
2022-09-20T12:53:57.446Z,52.54
2022-09-20T12:55:12.065Z,52.6
2022-09-20T12:56:16.266Z,52.66
2022-09-20T12:57:20.530Z,52.68
2022-09-20T12:58:24.852Z,52.69
2022-09-20T12:59:29.122Z,52.66
2022-09-20T13:00:33.436Z,52.69
2022-09-20T13:01:37.765Z,52.67
2022-09-20T13:02:42.029Z,52.72
2022-09-20T13:03:46.274Z,52.76
2022-09-20T13:04:50.520Z,52.75
2022-09-20T13:05:54.774Z,52.79
2022-09-20T13:06:58.997Z,52.77
2022-09-20T13:08:03.252Z,52.73
2022-09-20T13:09:07.640Z,52.72
2022-09-20T13:10:11.868Z,52.74
2022-09-20T13:11:16.097Z,52.7
2022-09-20T13:12:20.389Z,52.62
2022-09-20T13:13:24.605Z,52.63
2022-09-20T13:14:28.837Z,52.72
2022-09-20T13:15:33.094Z,52.75
2022-09-20T13:16:37.650Z,52.77
2022-09-20T13:17:41.963Z,52.73
2022-09-20T13:18:46.177Z,52.72
2022-09-20T13:19:50.374Z,52.71
2022-09-20T13:20:54.625Z,52.71
2022-09-20T13:21:58.914Z,52.7
2022-09-20T13:23:03.634Z,52.69
2022-09-20T13:24:07.902Z,52.71
2022-09-20T13:25:12.140Z,52.73
2022-09-20T13:26:16.390Z,52.71
2022-09-20T13:27:21.861Z,52.71
2022-09-20T13:28:26.075Z,52.78
2022-09-20T13:29:30.372Z,52.85
2022-09-20T13:30:34.629Z,52.93
2022-09-20T13:31:39.059Z,53
2022-09-20T13:32:43.323Z,52.99
2022-09-20T13:33:47.549Z,53
2022-09-20T13:34:51.823Z,53.02
2022-09-20T13:35:56.040Z,52.98
2022-09-20T13:37:00.256Z,52.95
2022-09-20T13:38:04.509Z,53
2022-09-20T13:39:08.740Z,53
2022-09-20T13:40:13.169Z,53.01
2022-09-20T13:41:17.442Z,53.06
2022-09-20T13:42:21.677Z,53.03
2022-09-20T13:43:26.950Z,53.01
2022-09-20T13:44:31.175Z,52.95
2022-09-20T13:45:36.228Z,52.97
2022-09-20T13:46:40.460Z,52.96
2022-09-20T13:47:44.695Z,52.97
2022-09-20T13:48:48.946Z,52.99
2022-09-20T13:49:53.151Z,52.98
2022-09-20T13:50:57.385Z,53.01
2022-09-20T13:52:01.636Z,53.02
2022-09-20T13:53:05.860Z,53.07
2022-09-20T13:54:10.104Z,53.1
2022-09-20T13:55:14.365Z,53.11
2022-09-20T13:56:18.594Z,53.13
2022-09-20T13:57:22.979Z,53.13
2022-09-20T13:58:27.204Z,53.08
2022-09-20T13:59:31.428Z,53.05
2022-09-20T14:00:35.650Z,53